Wetterstation Vordersexau
Wetterdaten: Woche 18.05.15 - 24.05.15 (KW21)
Datum Zeit Temp. A. Feuchte A. Luftdruck Regen Wind Richtung Taupunkt Windchill Windben
18.05.2015 00:00 10,2 C 83 % 1018,0 hPa 0,0 l/m 0,0 km/h N-NO 7,4 C 10,2 C 0,0 km/h
18.05.2015 01:00 9,2 C 83 % 1017,3 hPa 0,0 l/m 0,0 km/h O-SO 6,5 C 9,2 C 0,0 km/h
18.05.2015 02:00 8,7 C 84 % 1016,6 hPa 0,0 l/m 0,0 km/h O-SO 6,2 C 8,7 C 0,0 km/h
18.05.2015 03:00 8,0 C 84 % 1016,1 hPa 0,0 l/m 0,0 km/h O-SO 5,5 C 8,0 C 0,0 km/h
18.05.2015 04:00 7,2 C 85 % 1015,8 hPa 0,0 l/m 0,0 km/h O 4,9 C 7,2 C 0,0 km/h
18.05.2015 05:00 6,7 C 85 % 1015,1 hPa 0,0 l/m 0,0 km/h O-SO 4,4 C 6,7 C 0,0 km/h
18.05.2015 06:00 7,3 C 85 % 1014,8 hPa 0,0 l/m 0,6 km/h O-SO 4,9 C 7,3 C 0,4 km/h
18.05.2015 07:00 14,9 C 81 % 1014,4 hPa 0,0 l/m 0,0 km/h SO 11,7 C 14,9 C 0,0 km/h
18.05.2015 08:00 22,1 C 60 % 1013,9 hPa 0,0 l/m 0,0 km/h W 14,0 C 22,1 C 0,0 km/h
18.05.2015 09:00 23,3 C 51 % 1013,1 hPa 0,0 l/m 0,0 km/h W 12,6 C 23,3 C 0,0 km/h
18.05.2015 10:00 23,8 C 51 % 1012,2 hPa 0,0 l/m 1,9 km/h W 13,0 C 23,8 C 1,1 km/h
18.05.2015 11:00 23,1 C 50 % 1011,4 hPa 0,0 l/m 9,7 km/h W 12,1 C 22,1 C 5,4 km/h
18.05.2015 12:00 23,2 C 47 % 1010,4 hPa 0,0 l/m 12,3 km/h SW 11,3 C 21,7 C 6,8 km/h
18.05.2015 13:00 23,8 C 45 % 1009,3 hPa 0,0 l/m 18,8 km/h S-SW 11,1 C 21,3 C 10,4 km/h
18.05.2015 14:00 24,7 C 42 % 1008,6 hPa 0,0 l/m 11,0 km/h SW 10,9 C 23,6 C 6,1 km/h
18.05.2015 15:00 24,9 C 41 % 1007,5 hPa 0,0 l/m 18,8 km/h W 10,7 C 22,7 C 10,4 km/h
18.05.2015 16:00 25,6 C 41 % 1006,5 hPa 0,0 l/m 11,0 km/h SW 11,4 C 24,6 C 6,1 km/h
18.05.2015 17:00 27,4 C 35 % 1005,8 hPa 0,0 l/m 25,3 km/h SW 10,6 C 25,4 C 14,0 km/h
18.05.2015 18:00 26,6 C 35 % 1005,3 hPa 0,0 l/m 25,9 km/h W 9,9 C 24,3 C 14,4 km/h
18.05.2015 19:00 21,3 C 36 % 1005,0 hPa 0,0 l/m 6,5 km/h SW 5,6 C 21,3 C 3,6 km/h
18.05.2015 20:00 18,5 C 45 % 1005,2 hPa 0,0 l/m 1,3 km/h S 6,3 C 18,5 C 0,7 km/h
18.05.2015 21:00 16,4 C 53 % 1005,7 hPa 0,0 l/m 3,2 km/h W-NW 6,8 C 16,4 C 1,8 km/h
18.05.2015 22:00 13,5 C 65 % 1006,1 hPa 0,0 l/m 0,0 km/h N-NO 7,1 C 13,5 C 0,0 km/h
18.05.2015 23:00 12,6 C 72 % 1006,1 hPa 0,0 l/m 0,0 km/h N-NO 7,7 C 12,6 C 0,0 km/h
19.05.2015 00:00 11,6 C 76 % 1006,1 hPa 0,0 l/m 0,0 km/h N-NO 7,5 C 11,6 C 0,0 km/h
19.05.2015 01:00 10,8 C 78 % 1006,1 hPa 0,0 l/m 0,0 km/h N-NO 7,1 C 10,8 C 0,0 km/h
19.05.2015 02:00 10,5 C 79 % 1006,1 hPa 0,0 l/m 0,0 km/h N-NO 7,0 C 10,5 C 0,0 km/h
19.05.2015 03:00 10,6 C 82 % 1005,9 hPa 0,0 l/m 1,3 km/h N-NO 7,7 C 10,6 C 0,7 km/h
19.05.2015 04:00 11,4 C 81 % 1005,8 hPa 0,0 l/m 0,0 km/h W 8,3 C 11,4 C 0,0 km/h
19.05.2015 05:00 13,9 C 74 % 1006,3 hPa 0,0 l/m 0,0 km/h W-SW 9,3 C 13,9 C 0,0 km/h
19.05.2015 06:00 14,2 C 73 % 1006,9 hPa 0,0 l/m 3,2 km/h SW 9,4 C 14,2 C 1,8 km/h
19.05.2015 07:00 14,2 C 73 % 1007,3 hPa 0,0 l/m 16,8 km/h SW 9,4 C 9,6 C 9,4 km/h
19.05.2015 08:00 14,4 C 75 % 1007,9 hPa 0,0 l/m 3,2 km/h N 10,0 C 14,4 C 1,8 km/h
19.05.2015 09:00 15,1 C 73 % 1008,3 hPa 0,0 l/m 0,0 km/h N 10,3 C 15,1 C 0,0 km/h
19.05.2015 10:00 12,7 C 74 % 1009,2 hPa 0,0 l/m 0,0 km/h NW 8,2 C 12,7 C 0,0 km/h
19.05.2015 11:00 12,4 C 72 % 1009,5 hPa 0,0 l/m 0,0 km/h N 7,5 C 12,4 C 0,0 km/h
19.05.2015 12:00 12,4 C 72 % 1009,7 hPa 0,0 l/m 0,0 km/h O-NO 7,5 C 12,4 C 0,0 km/h
19.05.2015 13:00 13,1 C 72 % 1009,4 hPa 0,0 l/m 0,0 km/h NO 8,2 C 13,1 C 0,0 km/h
19.05.2015 14:00 19,1 C 59 % 1009,2 hPa 0,0 l/m 0,0 km/h S-SW 10,9 C 19,1 C 0,0 km/h
19.05.2015 15:00 16,5 C 61 % 1008,8 hPa 0,0 l/m 9,1 km/h W-SW 9,0 C 15,2 C 5,0 km/h
19.05.2015 16:00 17,6 C 57 % 1008,4 hPa 0,0 l/m 18,8 km/h S 9,0 C 13,4 C 10,4 km/h
19.05.2015 17:00 18,9 C 51 % 1008,4 hPa 0,0 l/m 7,1 km/h S-SW 8,5 C 18,6 C 4,0 km/h
19.05.2015 18:00 15,8 C 58 % 1008,4 hPa 0,0 l/m 7,8 km/h W 7,6 C 15,0 C 4,3 km/h
19.05.2015 19:00 14,8 C 60 % 1009,0 hPa 0,0 l/m 12,3 km/h W 7,1 C 11,9 C 6,8 km/h
19.05.2015 20:00 13,8 C 63 % 1009,3 hPa 0,0 l/m 0,0 km/h W 6,9 C 13,8 C 0,0 km/h
19.05.2015 21:00 12,3 C 69 % 1010,0 hPa 0,0 l/m 0,0 km/h W 6,8 C 12,3 C 0,0 km/h
19.05.2015 22:00 11,3 C 75 % 1010,1 hPa 0,0 l/m 0,0 km/h W 7,0 C 11,3 C 0,0 km/h
19.05.2015 23:00 10,3 C 79 % 1010,2 hPa 0,0 l/m 0,0 km/h NW 6,8 C 10,3 C 0,0 km/h
20.05.2015 00:00 9,9 C 81 % 1010,4 hPa 0,0 l/m 0,0 km/h NW 6,8 C 9,9 C 0,0 km/h
20.05.2015 01:00 9,1 C 82 % 1010,2 hPa 0,0 l/m 0,0 km/h O-SO 6,2 C 9,1 C 0,0 km/h
20.05.2015 02:00 8,3 C 83 % 1010,1 hPa 0,0 l/m 0,0 km/h O-SO 5,6 C 8,3 C 0,0 km/h
20.05.2015 03:00 8,1 C 84 % 1010,2 hPa 0,0 l/m 0,0 km/h O 5,6 C 8,1 C 0,0 km/h
20.05.2015 04:00 7,6 C 84 % 1010,1 hPa 0,0 l/m 0,0 km/h N-NO 5,1 C 7,6 C 0,0 km/h
20.05.2015 05:00 7,9 C 85 % 1010,1 hPa 0,0 l/m 0,0 km/h W 5,5 C 7,9 C 0,0 km/h
20.05.2015 06:00 9,3 C 84 % 1010,6 hPa 0,0 l/m 9,7 km/h W-NW 6,7 C 7,0 C 5,4 km/h
20.05.2015 07:00 9,0 C 84 % 1011,2 hPa 0,4 l/m 0,0 km/h N 6,4 C 9,0 C 0,0 km/h
20.05.2015 08:00 8,2 C 85 % 1012,1 hPa 2,9 l/m 0,0 km/h N 5,8 C 8,2 C 0,0 km/h
20.05.2015 09:00 9,9 C 85 % 1012,9 hPa 0,4 l/m 7,1 km/h N 7,5 C 9,4 C 4,0 km/h
20.05.2015 10:00 10,9 C 82 % 1013,3 hPa 0,0 l/m 0,0 km/h W 7,9 C 10,9 C 0,0 km/h
20.05.2015 11:00 9,9 C 83 % 1013,9 hPa 0,4 l/m 2,6 km/h N-NO 7,2 C 9,9 C 1,4 km/h
20.05.2015 12:00 13,9 C 73 % 1014,0 hPa 0,0 l/m 0,0 km/h S-SO 9,1 C 13,9 C 0,0 km/h
20.05.2015 13:00 12,3 C 72 % 1014,2 hPa 0,0 l/m 4,5 km/h S-SO 7,4 C 12,3 C 2,5 km/h
20.05.2015 14:00 7,2 C 79 % 1015,1 hPa 2,5 l/m 0,6 km/h O-NO 3,8 C 7,2 C 0,4 km/h
20.05.2015 15:00 13,8 C 76 % 1014,6 hPa 0,4 l/m 0,0 km/h O-NO 9,6 C 13,8 C 0,0 km/h
20.05.2015 16:00 13,5 C 70 % 1014,8 hPa 0,0 l/m 0,0 km/h SO 8,1 C 13,5 C 0,0 km/h
20.05.2015 17:00 16,1 C 59 % 1014,7 hPa 0,0 l/m 1,9 km/h SO 8,1 C 16,1 C 1,1 km/h
20.05.2015 18:00 13,3 C 65 % 1014,9 hPa 0,0 l/m 1,3 km/h N-NO 6,9 C 13,3 C 0,7 km/h
20.05.2015 19:00 10,9 C 68 % 1015,9 hPa 0,0 l/m 0,0 km/h SO 5,2 C 10,9 C 0,0 km/h
20.05.2015 20:00 8,6 C 75 % 1016,2 hPa 0,0 l/m 0,0 km/h N 4,4 C 8,6 C 0,0 km/h
20.05.2015 21:00 7,9 C 79 % 1016,9 hPa 0,0 l/m 0,0 km/h SO 4,5 C 7,9 C 0,0 km/h
20.05.2015 22:00 7,1 C 82 % 1017,6 hPa 0,0 l/m 0,0 km/h SO 4,2 C 7,1 C 0,0 km/h
20.05.2015 23:00 6,5 C 84 % 1018,1 hPa 0,0 l/m 0,0 km/h O-NO 4,0 C 6,5 C 0,0 km/h
21.05.2015 00:00 6,4 C 84 % 1018,1 hPa 0,0 l/m 0,0 km/h O-NO 3,9 C 6,4 C 0,0 km/h
21.05.2015 01:00 6,5 C 85 % 1018,6 hPa 0,0 l/m 0,0 km/h O-NO 4,2 C 6,5 C 0,0 km/h
21.05.2015 02:00 6,3 C 85 % 1018,7 hPa 0,0 l/m 0,0 km/h O-NO 4,0 C 6,3 C 0,0 km/h
21.05.2015 03:00 5,6 C 85 % 1019,1 hPa 0,0 l/m 0,0 km/h O-NO 3,3 C 5,6 C 0,0 km/h
21.05.2015 04:00 4,3 C 85 % 1019,4 hPa 0,0 l/m 0,0 km/h O-NO 2,0 C 4,3 C 0,0 km/h
21.05.2015 05:00 4,5 C 85 % 1019,9 hPa 0,0 l/m 0,0 km/h O 2,2 C 4,5 C 0,0 km/h
21.05.2015 06:00 5,3 C 85 % 1020,2 hPa 0,0 l/m 0,0 km/h O-SO 3,0 C 5,3 C 0,0 km/h
21.05.2015 07:00 9,9 C 67 % 1020,6 hPa 0,0 l/m 0,0 km/h W 4,1 C 9,9 C 0,0 km/h
21.05.2015 08:00 16,7 C 63 % 1021,0 hPa 0,0 l/m 0,0 km/h W 9,6 C 16,7 C 0,0 km/h
21.05.2015 09:00 17,8 C 56 % 1021,2 hPa 0,0 l/m 2,6 km/h W-NW 8,9 C 17,8 C 1,4 km/h
21.05.2015 10:00 14,3 C 63 % 1021,4 hPa 0,0 l/m 0,0 km/h N 7,4 C 14,3 C 0,0 km/h
21.05.2015 11:00 14,4 C 62 % 1021,5 hPa 0,0 l/m 0,0 km/h N 7,2 C 14,4 C 0,0 km/h
21.05.2015 12:00 16,3 C 54 % 1021,5 hPa 0,0 l/m 22,7 km/h N 7,0 C 10,8 C 12,6 km/h
21.05.2015 13:00 18,6 C 49 % 1021,4 hPa 0,0 l/m 11,0 km/h N-NO 7,7 C 16,7 C 6,1 km/h
21.05.2015 14:00 17,4 C 49 % 1021,4 hPa 0,0 l/m 18,8 km/h N 6,6 C 13,1 C 10,4 km/h
21.05.2015 15:00 17,9 C 46 % 1021,3 hPa 0,0 l/m 2,6 km/h N 6,1 C 17,9 C 1,4 km/h
21.05.2015 16:00 21,6 C 38 % 1021,3 hPa 0,0 l/m 0,0 km/h N-NO 6,7 C 21,6 C 0,0 km/h
21.05.2015 17:00 23,3 C 32 % 1021,6 hPa 0,0 l/m 0,0 km/h N-NO 5,7 C 23,3 C 0,0 km/h
21.05.2015 18:00 21,5 C 32 % 1021,7 hPa 0,0 l/m 2,6 km/h N-NW 4,1 C 21,5 C 1,4 km/h
21.05.2015 19:00 17,1 C 39 % 1022,1 hPa 0,0 l/m 0,0 km/h N-NW 3,0 C 17,1 C 0,0 km/h
21.05.2015 20:00 14,1 C 47 % 1022,4 hPa 0,0 l/m 0,0 km/h N 3,0 C 14,1 C 0,0 km/h
21.05.2015 21:00 9,8 C 58 % 1023,2 hPa 0,0 l/m 0,0 km/h O-SO 1,9 C 9,8 C 0,0 km/h
21.05.2015 22:00 6,9 C 70 % 1023,8 hPa 0,0 l/m 0,0 km/h O-SO 1,8 C 6,9 C 0,0 km/h
21.05.2015 23:00 5,8 C 76 % 1024,0 hPa 0,0 l/m 0,0 km/h O-SO 1,9 C 5,8 C 0,0 km/h
22.05.2015 00:00 6,3 C 79 % 1024,0 hPa 0,0 l/m 0,0 km/h O-SO 2,9 C 6,3 C 0,0 km/h
22.05.2015 01:00 4,9 C 79 % 1023,8 hPa 0,0 l/m 0,0 km/h SO 1,6 C 4,9 C 0,0 km/h
22.05.2015 02:00 4,2 C 81 % 1024,0 hPa 0,0 l/m 0,0 km/h O-SO 1,2 C 4,2 C 0,0 km/h
22.05.2015 03:00 3,6 C 83 % 1024,1 hPa 0,0 l/m 2,6 km/h SO 1,0 C 3,6 C 1,4 km/h
22.05.2015 04:00 2,9 C 84 % 1023,7 hPa 0,0 l/m 0,0 km/h SO 0,5 C 2,9 C 0,0 km/h
22.05.2015 05:00 2,2 C 84 % 1023,6 hPa 0,0 l/m 0,0 km/h SO -0,2 C 2,2 C 0,0 km/h
22.05.2015 06:00 3,9 C 85 % 1023,7 hPa 0,0 l/m 0,0 km/h SO 1,6 C 3,9 C 0,0 km/h
22.05.2015 07:00 12,2 C 80 % 1023,7 hPa 0,0 l/m 5,2 km/h W-NW 8,9 C 12,2 C 2,9 km/h
22.05.2015 08:00 18,2 C 51 % 1023,5 hPa 0,0 l/m 0,0 km/h W 7,9 C 18,2 C 0,0 km/h
22.05.2015 09:00 19,7 C 50 % 1023,1 hPa 0,0 l/m 0,0 km/h N-NO 9,0 C 19,7 C 0,0 km/h
22.05.2015 10:00 20,9 C 39 % 1022,8 hPa 0,0 l/m 5,2 km/h N 6,4 C 20,9 C 2,9 km/h
22.05.2015 11:00 20,4 C 35 % 1022,2 hPa 0,0 l/m 0,6 km/h N-NO 4,4 C 20,4 C 0,4 km/h
22.05.2015 12:00 21,8 C 35 % 1021,5 hPa 0,0 l/m 1,3 km/h N 5,7 C 21,8 C 0,7 km/h
22.05.2015 13:00 21,8 C 30 % 1020,8 hPa 0,0 l/m 4,5 km/h N-NO 3,5 C 21,8 C 2,5 km/h
22.05.2015 14:00 23,8 C 31 % 1020,1 hPa 0,0 l/m 0,0 km/h N 5,6 C 23,8 C 0,0 km/h
22.05.2015 15:00 23,4 C 31 % 1019,4 hPa 0,0 l/m 0,0 km/h N 5,3 C 23,4 C 0,0 km/h
22.05.2015 16:00 24,8 C 30 % 1018,7 hPa 0,0 l/m 4,5 km/h O-NO 6,0 C 24,8 C 2,5 km/h
22.05.2015 17:00 27,8 C 24 % 1018,3 hPa 0,0 l/m 0,0 km/h O-NO 5,4 C 27,8 C 0,0 km/h
22.05.2015 18:00 23,8 C 27 % 1018,2 hPa 0,0 l/m 0,6 km/h O-NO 3,7 C 23,8 C 0,4 km/h
22.05.2015 19:00 18,9 C 36 % 1018,3 hPa 0,0 l/m 0,0 km/h N 3,5 C 18,9 C 0,0 km/h
22.05.2015 20:00 14,7 C 44 % 1018,3 hPa 0,0 l/m 0,0 km/h N 2,6 C 14,7 C 0,0 km/h
22.05.2015 21:00 11,9 C 54 % 1019,0 hPa 0,0 l/m 0,0 km/h O-SO 2,9 C 11,9 C 0,0 km/h
22.05.2015 22:00 9,3 C 63 % 1018,9 hPa 0,0 l/m 0,0 km/h N 2,6 C 9,3 C 0,0 km/h
22.05.2015 23:00 9,6 C 64 % 1018,6 hPa 0,0 l/m 0,0 km/h N-NO 3,1 C 9,6 C 0,0 km/h
23.05.2015 00:00 9,6 C 67 % 1018,5 hPa 0,0 l/m 0,0 km/h N-NO 3,8 C 9,6 C 0,0 km/h
23.05.2015 01:00 9,3 C 67 % 1018,0 hPa 0,0 l/m 0,0 km/h SO 3,5 C 9,3 C 0,0 km/h
23.05.2015 02:00 8,4 C 70 % 1017,4 hPa 0,0 l/m 1,3 km/h N-NO 3,3 C 8,4 C 0,7 km/h
23.05.2015 03:00 8,1 C 71 % 1017,1 hPa 0,0 l/m 0,0 km/h N-NO 3,2 C 8,1 C 0,0 km/h
23.05.2015 04:00 6,1 C 74 % 1017,0 hPa 0,0 l/m 0,0 km/h N-NO 1,8 C 6,1 C 0,0 km/h
23.05.2015 05:00 4,9 C 78 % 1016,8 hPa 0,0 l/m 0,0 km/h N-NO 1,4 C 4,9 C 0,0 km/h
23.05.2015 06:00 5,7 C 81 % 1016,9 hPa 0,0 l/m 0,0 km/h N-NO 2,7 C 5,7 C 0,0 km/h
23.05.2015 07:00 10,0 C 80 % 1017,2 hPa 0,0 l/m 0,0 km/h W 6,7 C 10,0 C 0,0 km/h
23.05.2015 08:00 17,3 C 56 % 1016,9 hPa 0,0 l/m 0,0 km/h W 8,4 C 17,3 C 0,0 km/h
23.05.2015 09:00 18,9 C 54 % 1016,6 hPa 0,0 l/m 1,3 km/h N-NO 9,4 C 18,9 C 0,7 km/h
23.05.2015 10:00 22,7 C 38 % 1016,2 hPa 0,0 l/m 0,0 km/h O-NO 7,6 C 22,7 C 0,0 km/h
23.05.2015 11:00 23,4 C 38 % 1015,8 hPa 0,0 l/m 0,0 km/h NO 8,3 C 23,4 C 0,0 km/h
23.05.2015 12:00 23,1 C 37 % 1015,5 hPa 0,0 l/m 1,9 km/h N 7,6 C 23,1 C 1,1 km/h
23.05.2015 13:00 23,1 C 37 % 1015,1 hPa 0,0 l/m 1,9 km/h O-SO 7,6 C 23,1 C 1,1 km/h
23.05.2015 14:00 25,2 C 33 % 1014,9 hPa 0,0 l/m 0,0 km/h N 7,8 C 25,2 C 0,0 km/h
23.05.2015 15:00 25,6 C 31 % 1014,3 hPa 0,0 l/m 3,9 km/h W-SW 7,2 C 25,6 C 2,2 km/h
23.05.2015 16:00 23,1 C 37 % 1014,2 hPa 0,0 l/m 4,5 km/h N 7,6 C 23,1 C 2,5 km/h
23.05.2015 17:00 23,2 C 35 % 1014,2 hPa 0,0 l/m 1,9 km/h N-NW 6,9 C 23,2 C 1,1 km/h
23.05.2015 18:00 21,5 C 39 % 1014,3 hPa 0,0 l/m 18,8 km/h N 7,0 C 18,3 C 10,4 km/h
23.05.2015 19:00 18,8 C 45 % 1014,7 hPa 0,0 l/m 0,0 km/h N 6,6 C 18,8 C 0,0 km/h
23.05.2015 20:00 17,2 C 49 % 1014,9 hPa 0,0 l/m 0,0 km/h N-NO 6,4 C 17,2 C 0,0 km/h
23.05.2015 21:00 13,4 C 58 % 1015,5 hPa 0,0 l/m 0,0 km/h O-SO 5,3 C 13,4 C 0,0 km/h
23.05.2015 22:00 12,4 C 69 % 1016,0 hPa 0,0 l/m 0,0 km/h O-SO 6,9 C 12,4 C 0,0 km/h
23.05.2015 23:00 12,9 C 69 % 1015,7 hPa 0,0 l/m 0,0 km/h O-NO 7,4 C 12,9 C 0,0 km/h
24.05.2015 00:00 12,9 C 69 % 1015,8 hPa 0,0 l/m 0,0 km/h O-NO 7,4 C 12,9 C 0,0 km/h
24.05.2015 01:00 12,7 C 70 % 1015,4 hPa 0,0 l/m 0,0 km/h O-NO 7,4 C 12,7 C 0,0 km/h
24.05.2015 02:00 11,5 C 75 % 1015,4 hPa 0,0 l/m 0,0 km/h SO 7,2 C 11,5 C 0,0 km/h
24.05.2015 03:00 11,2 C 78 % 1015,0 hPa 0,0 l/m 0,0 km/h O-SO 7,5 C 11,2 C 0,0 km/h
24.05.2015 04:00 11,0 C 79 % 1014,7 hPa 0,0 l/m 0,0 km/h O-SO 7,5 C 11,0 C 0,0 km/h
24.05.2015 05:00 10,8 C 81 % 1014,7 hPa 0,0 l/m 0,0 km/h O-SO 7,7 C 10,8 C 0,0 km/h
24.05.2015 06:00 11,8 C 80 % 1015,1 hPa 0,0 l/m 0,0 km/h O 8,5 C 11,8 C 0,0 km/h
24.05.2015 07:00 17,4 C 74 % 1015,4 hPa 0,0 l/m 0,0 km/h W 12,7 C 17,4 C 0,0 km/h
24.05.2015 08:00 22,6 C 51 % 1015,4 hPa 0,0 l/m 0,6 km/h SW 11,9 C 22,6 C 0,4 km/h
24.05.2015 09:00 24,2 C 49 % 1015,4 hPa 0,0 l/m 0,0 km/h W-NW 12,8 C 24,2 C 0,0 km/h
24.05.2015 10:00 24,7 C 47 % 1015,3 hPa 0,0 l/m 0,0 km/h W 12,6 C 24,7 C 0,0 km/h
24.05.2015 11:00 21,4 C 54 % 1015,1 hPa 0,0 l/m 0,0 km/h NW 11,7 C 21,4 C 0,0 km/h
24.05.2015 12:00 21,1 C 56 % 1015,1 hPa 0,0 l/m 0,0 km/h N-NW 12,0 C 21,1 C 0,0 km/h
24.05.2015 13:00 19,4 C 59 % 1015,2 hPa 0,0 l/m 0,0 km/h N 11,2 C 19,4 C 0,0 km/h
24.05.2015 14:00 19,0 C 61 % 1015,1 hPa 0,0 l/m 0,0 km/h N 11,3 C 19,0 C 0,0 km/h
24.05.2015 15:00 21,3 C 58 % 1014,9 hPa 0,0 l/m 0,0 km/h N-NO 12,7 C 21,3 C 0,0 km/h
24.05.2015 16:00 20,7 C 58 % 1014,7 hPa 0,0 l/m 0,0 km/h N 12,1 C 20,7 C 0,0 km/h
24.05.2015 17:00 21,5 C 56 % 1014,3 hPa 0,0 l/m 0,0 km/h N 12,3 C 21,5 C 0,0 km/h
24.05.2015 18:00 21,0 C 57 % 1014,0 hPa 0,0 l/m 0,0 km/h N 12,1 C 21,0 C 0,0 km/h
24.05.2015 19:00 19,6 C 61 % 1014,1 hPa 0,0 l/m 0,0 km/h N 11,9 C 19,6 C 0,0 km/h
24.05.2015 20:00 16,8 C 68 % 1014,3 hPa 0,0 l/m 0,0 km/h N 10,9 C 16,8 C 0,0 km/h
24.05.2015 21:00 15,2 C 75 % 1014,5 hPa 0,0 l/m 0,0 km/h NO 10,8 C 15,2 C 0,0 km/h
24.05.2015 22:00 14,1 C 78 % 1014,7 hPa 0,0 l/m 0,0 km/h NO 10,3 C 14,1 C 0,0 km/h
24.05.2015 23:00 13,2 C 80 % 1014,6 hPa 0,0 l/m 0,0 km/h O-NO 9,8 C 13,2 C 0,0 km/h
Min-Datum _ 22.05.15 22.05.15 18.05.15 - 18.05.15 - 22.05.15 22.05.15 18.05.15
_ Min-Zeit 05:51 17:51 19:51 - 00:51 - 05:51 05:51 00:51
Minimum _ 2,2 C 24 % 1005,0 hPa - 0,0 km/h - -0,2 C 2,2 C 0,0 km/h
Max-Datum _ 22.05.15 18.05.15 22.05.15 20.05.15 18.05.15 - 18.05.15 22.05.15 18.05.15
_ Max-Zeit 17:51 04:51 03:51 08:51 18:51 - 08:51 17:51 18:51
Maximum _ 27,8 C 85 % 1024,1 hPa 2,9 l/m 25,9 km/h
W
- 14,0 C 27,8 C 14,4 km/h
W
Durchschnitt _ 14,5 C 64 % 1015,1 hPa #7,0 l/m 2,2 km/h N 7,0 C 14,3 C 1,2 km/h
www.sexauwetter.de